»·PEaware :: RNGR824 KNGP-KNGP

RNGR824 :: KNGP-KNGP

FLIGHT INFORMATION

Flight Status: Arrived
Operator: Unknown
More flights by this operator :: More flights under this callsign
Pilot: USN Avenger (31125)
Aircraft: BEECH AIRCRAFT T-6A TEXAN
(TEX2)
More flights by this aircraft type
Origin: KNGP Corpus Christi NAS/Truax
United States
Destination: KNGP Corpus Christi NAS/Truax
United States
More flights between these airports :: More routes between these airports
Route: SOUTH MUSTANG KNGW
File this flight plan on PilotEdge
Remarks: NORTH FLOW DEPATURE
Altitude:
(Current/Filed)
5,500ft
Speed:
(Current/Filed)
240kts
Departed: 15-Nov-23 11:49 AM
Arrived: 15-Nov-23 12:25 PM
Distance/Time
Traveled:
0nm/0:36
Distance/Time
To Go:
Arrived

Flight Plot

Page will automatically refresh every two minutes.

Flight plan parsing failed; only flown route is shown


Map Options




Map Legend


Flown Route
Filed Route
Departure Airport
Arrival Airport
Navaid (VOR, NDB)
Fix

Horizontal Profiles

Position Reports

Time Latitude Longitude Heading Altitude Ground
Speed
15-Nov-23 11:33 27.698536 -97.284282 158 22ft 0kts
15-Nov-23 11:34 27.698534 -97.284281 159 22ft 0kts
15-Nov-23 11:35 27.698533 -97.284280 159 22ft 0kts
15-Nov-23 11:36 27.698531 -97.284280 159 22ft 0kts
15-Nov-23 11:37 27.698530 -97.284279 159 22ft 0kts
15-Nov-23 11:38 27.698528 -97.284278 159 22ft 0kts
15-Nov-23 11:39 27.698527 -97.284278 159 22ft 0kts
15-Nov-23 11:40 27.698525 -97.284277 159 22ft 0kts
15-Nov-23 11:41 27.698523 -97.284276 159 22ft 0kts
15-Nov-23 11:42 27.698522 -97.284275 159 22ft 0kts
15-Nov-23 11:43 27.698520 -97.284275 159 22ft 0kts
15-Nov-23 11:44 27.698462 -97.285565 338 22ft 10kts
15-Nov-23 11:45 27.697404 -97.288816 223 22ft 26kts
15-Nov-23 11:46 27.695772 -97.291022 222 22ft 0kts
15-Nov-23 11:47 27.695055 -97.291472 172 22ft 12kts
15-Nov-23 11:48 27.684317 -97.279414 133 333ft 143kts
15-Nov-23 11:49 27.657598 -97.227677 113 1695ft 194kts
15-Nov-23 11:50 27.629127 -97.177079 177 3788ft 209kts
15-Nov-23 11:51 27.574104 -97.192433 196 5704ft 228kts
15-Nov-23 11:52 27.527713 -97.157564 112 6082ft 254kts
15-Nov-23 11:53 27.496062 -97.096351 129 8661ft 215kts
15-Nov-23 11:54 27.440882 -97.088959 207 9473ft 237kts
15-Nov-23 11:55 27.443705 -97.158201 306 10240ft 242kts
15-Nov-23 11:56 27.440081 -97.120268 112 10025ft 254kts
15-Nov-23 11:57 27.463977 -97.113188 252 8403ft 254kts
15-Nov-23 11:58 27.454752 -97.188533 280 6052ft 236kts
15-Nov-23 11:59 27.467983 -97.256427 263 3842ft 232kts
15-Nov-23 12:00 27.469231 -97.326504 282 1091ft 196kts
15-Nov-23 12:01 27.502005 -97.354171 23 1114ft 198kts
15-Nov-23 12:02 27.556028 -97.333681 16 1093ft 208kts
15-Nov-23 12:03 27.611217 -97.317623 11 1083ft 207kts
15-Nov-23 12:04 27.649735 -97.330441 218 855ft 129kts
15-Nov-23 12:05 27.619730 -97.322915 115 678ft 109kts
15-Nov-23 12:06 27.647417 -97.315716 356 411ft 126kts
15-Nov-23 12:07 27.642385 -97.333645 185 910ft 122kts
15-Nov-23 12:08 27.613842 -97.327523 104 601ft 101kts
15-Nov-23 12:09 27.633103 -97.315325 359 29ft 98kts
15-Nov-23 12:10 27.655396 -97.330402 202 809ft 141kts
15-Nov-23 12:11 27.608152 -97.326560 158 588ft 212kts
15-Nov-23 12:12 27.577857 -97.271301 113 493ft 197kts
15-Nov-23 12:13 27.556735 -97.216586 101 981ft 191kts
15-Nov-23 12:14 27.608820 -97.181937 22 1083ft 254kts
15-Nov-23 12:15 27.669340 -97.149258 26 962ft 235kts
15-Nov-23 12:16 27.727708 -97.117113 24 1038ft 234kts
15-Nov-23 12:17 27.760103 -97.154216 271 1041ft 183kts
15-Nov-23 12:18 27.735107 -97.192423 207 889ft 197kts
15-Nov-23 12:19 27.686106 -97.222583 210 1086ft 205kts
15-Nov-23 12:20 27.682256 -97.273877 313 1009ft 195kts
15-Nov-23 12:21 27.713691 -97.284918 121 881ft 122kts
15-Nov-23 12:22 27.687534 -97.261147 150 704ft 121kts
15-Nov-23 12:23 27.688051 -97.283651 313 23ft 93kts
15-Nov-23 12:24 27.695622 -97.290878 45 22ft 0kts

Navigation Log

Ident Type
Flight plan parsing failed, navigation log unavailable